createdAt,value
2023-01-15T00:00:21.871Z,99202.69
2023-01-15T00:02:48.356Z,99190.56
2023-01-15T00:05:14.977Z,99198.69
2023-01-15T00:07:41.420Z,99206.50
2023-01-15T00:10:08.787Z,99203.84
2023-01-15T00:12:35.219Z,99202.19
2023-01-15T00:15:01.621Z,99190.75
2023-01-15T00:17:28.079Z,99194.38
2023-01-15T00:19:54.595Z,99185.44
2023-01-15T00:22:20.998Z,99170.31
2023-01-15T00:25:05.909Z,99181.28
2023-01-15T00:27:41.711Z,99184.56
2023-01-15T00:30:11.705Z,99195.88
2023-01-15T00:32:39.040Z,99191.56
2023-01-15T00:35:06.308Z,99192.91
2023-01-15T00:37:32.739Z,99201.84
2023-01-15T00:39:59.208Z,99208.66
2023-01-15T00:42:25.661Z,99206.84
2023-01-15T00:44:52.150Z,99204.50
2023-01-15T00:47:18.636Z,99209.50
2023-01-15T00:49:45.258Z,99215.28
2023-01-15T00:52:12.296Z,99215.13
2023-01-15T00:54:38.733Z,99215.63
2023-01-15T00:57:05.232Z,99218.78
2023-01-15T00:59:31.675Z,99219.63
2023-01-15T01:01:58.356Z,99235.03
2023-01-15T01:04:24.862Z,99226.06
2023-01-15T01:06:51.290Z,99230.91
2023-01-15T01:09:17.775Z,99242.16
2023-01-15T01:11:44.232Z,99244.50
2023-01-15T01:14:12.318Z,99248.81
2023-01-15T01:16:40.455Z,99249.16
2023-01-15T01:19:09.912Z,99244.34
2023-01-15T01:21:40.970Z,99255.97
2023-01-15T01:24:08.257Z,99263.78
2023-01-15T01:26:35.183Z,99270.59
2023-01-15T01:29:01.896Z,99259.59
2023-01-15T01:31:28.406Z,99252.31
2023-01-15T01:33:56.619Z,99245.69
2023-01-15T01:36:32.136Z,99253.00
2023-01-15T01:38:59.629Z,99251.16
2023-01-15T01:41:27.168Z,99260.16
2023-01-15T01:44:01.423Z,99244.69
2023-01-15T01:46:30.693Z,99245.69
2023-01-15T01:49:02.098Z,99260.97
2023-01-15T01:51:34.482Z,99256.16
2023-01-15T01:54:02.243Z,99250.03
2023-01-15T01:56:30.720Z,99260.34
2023-01-15T01:58:57.214Z,99262.63
2023-01-15T02:01:25.337Z,99262.16
2023-01-15T02:03:53.343Z,99259.03
2023-01-15T02:06:20.319Z,99248.41
2023-01-15T02:08:46.728Z,99245.91
2023-01-15T02:11:17.394Z,99239.41
2023-01-15T02:13:53.138Z,99238.44
2023-01-15T02:16:56.847Z,99233.63
2023-01-15T02:19:41.391Z,99236.78
2023-01-15T02:22:49.254Z,99240.91
2023-01-15T02:25:39.618Z,99229.28
2023-01-15T02:28:26.204Z,99247.25
2023-01-15T02:31:06.852Z,99243.09
2023-01-15T02:33:44.003Z,99256.69
2023-01-15T02:36:15.083Z,99243.75
2023-01-15T02:38:48.594Z,99249.06
2023-01-15T02:41:18.441Z,99248.06
2023-01-15T02:43:48.634Z,99249.22
2023-01-15T02:46:16.298Z,99244.53
2023-01-15T02:48:46.394Z,99245.72
2023-01-15T02:51:21.777Z,99241.56
2023-01-15T02:53:51.209Z,99252.50
2023-01-15T02:56:22.334Z,99242.38
2023-01-15T02:58:53.786Z,99231.44
2023-01-15T03:01:28.113Z,99235.75
2023-01-15T03:04:10.275Z,99201.19
2023-01-15T03:06:51.551Z,99237.59
2023-01-15T03:09:18.793Z,99220.44
2023-01-15T03:12:04.078Z,99229.13
2023-01-15T03:14:38.509Z,99228.09
2023-01-15T03:17:19.850Z,99231.41
2023-01-15T03:20:11.904Z,99236.41
2023-01-15T03:22:43.821Z,99221.78
2023-01-15T03:25:19.035Z,99221.94
2023-01-15T03:27:45.718Z,99214.13
2023-01-15T03:30:15.827Z,99217.13
2023-01-15T03:32:42.475Z,99219.13
2023-01-15T03:35:49.672Z,99207.16
2023-01-15T03:38:19.612Z,99215.13
2023-01-15T03:41:30.896Z,99213.28
2023-01-15T03:44:22.157Z,99222.78
2023-01-15T03:46:54.352Z,99220.59
2023-01-15T03:49:34.761Z,99207.66
2023-01-15T03:52:20.095Z,99207.81
2023-01-15T03:55:10.067Z,99194.03
2023-01-15T03:57:48.426Z,99205.84
2023-01-15T04:00:17.940Z,99200.38
2023-01-15T04:02:46.969Z,99196.03
2023-01-15T04:05:15.710Z,99198.53
2023-01-15T04:07:42.464Z,99200.38
2023-01-15T04:10:10.318Z,99195.03
2023-01-15T04:12:36.833Z,99178.09
2023-01-15T04:15:03.864Z,99189.41
2023-01-15T04:17:30.504Z,99179.94
2023-01-15T04:19:56.956Z,99187.25
2023-01-15T04:22:23.385Z,99187.25
2023-01-15T04:24:49.838Z,99190.41
2023-01-15T04:27:16.270Z,99174.59
2023-01-15T04:29:42.692Z,99179.94
2023-01-15T04:32:09.131Z,99171.44
2023-01-15T04:34:36.209Z,99167.97
2023-01-15T04:37:02.715Z,99164.97
2023-01-15T04:39:29.149Z,99173.63
2023-01-15T04:42:14.062Z,99172.94
2023-01-15T04:44:40.615Z,99167.28
2023-01-15T04:47:07.084Z,99176.94
2023-01-15T04:49:34.373Z,99175.63
2023-01-15T04:52:00.974Z,99176.47
2023-01-15T04:54:27.532Z,99181.28
2023-01-15T04:56:55.094Z,99174.31
2023-01-15T04:59:24.715Z,99182.13
2023-01-15T05:02:02.995Z,99167.16
2023-01-15T05:04:31.587Z,99171.97
2023-01-15T05:06:57.995Z,99166.81
2023-01-15T05:09:24.398Z,99179.94
2023-01-15T05:11:50.846Z,99173.63
2023-01-15T05:14:17.251Z,99166.16
2023-01-15T05:16:44.336Z,99167.66
2023-01-15T05:19:10.853Z,99177.28
2023-01-15T05:21:42.165Z,99158.19
2023-01-15T05:24:12.951Z,99164.00
2023-01-15T05:26:39.452Z,99171.00
2023-01-15T05:29:05.915Z,99153.69
2023-01-15T05:31:33.731Z,99166.78
2023-01-15T05:34:01.056Z,99169.63
2023-01-15T05:36:30.189Z,99170.94
2023-01-15T05:39:01.362Z,99166.47
2023-01-15T05:41:46.621Z,99157.66
2023-01-15T05:44:13.699Z,99179.75
2023-01-15T05:46:41.654Z,99173.13
2023-01-15T05:49:11.401Z,99183.25
2023-01-15T05:51:38.610Z,99179.25
2023-01-15T05:54:06.348Z,99175.94
2023-01-15T05:56:35.928Z,99176.31
2023-01-15T05:59:02.513Z,99163.50
2023-01-15T06:01:29.030Z,99171.47
2023-01-15T06:03:58.788Z,99163.00
2023-01-15T06:06:25.404Z,99166.16
2023-01-15T06:08:51.909Z,99165.50
2023-01-15T06:11:18.683Z,99170.97
2023-01-15T06:13:45.120Z,99171.28
2023-01-15T06:16:11.766Z,99162.47
2023-01-15T06:18:39.301Z,99180.25
2023-01-15T06:21:10.808Z,99162.97
2023-01-15T06:23:38.571Z,99169.44
2023-01-15T06:26:07.816Z,99187.91
2023-01-15T06:28:34.307Z,99171.94
2023-01-15T06:31:05.165Z,99178.56
2023-01-15T06:33:31.729Z,99171.75
2023-01-15T06:35:58.131Z,99172.75
2023-01-15T06:38:24.534Z,99174.75
2023-01-15T06:40:50.927Z,99178.22
2023-01-15T06:43:36.370Z,99175.06
2023-01-15T06:46:25.667Z,99179.03
2023-01-15T06:48:52.197Z,99175.41
2023-01-15T06:51:21.001Z,99170.56
2023-01-15T06:53:47.991Z,99174.03
2023-01-15T06:56:15.273Z,99164.56
2023-01-15T06:58:43.881Z,99175.69
2023-01-15T07:01:11.813Z,99170.53
2023-01-15T07:03:38.327Z,99164.06
2023-01-15T07:06:10.646Z,99141.16
2023-01-15T07:08:37.079Z,99153.25
2023-01-15T07:11:09.027Z,99177.00
2023-01-15T07:13:36.130Z,99172.88
2023-01-15T07:16:03.955Z,99160.56
2023-01-15T07:18:33.199Z,99168.22
2023-01-15T07:20:59.806Z,99163.25
2023-01-15T07:23:27.228Z,99150.25
2023-01-15T07:25:54.083Z,99159.09
2023-01-15T07:28:22.260Z,99154.78
2023-01-15T07:30:48.727Z,99159.59
2023-01-15T07:33:15.306Z,99157.75
2023-01-15T07:35:42.133Z,99172.25
2023-01-15T07:38:08.541Z,99155.63
2023-01-15T07:40:34.946Z,99153.59
2023-01-15T07:43:19.998Z,99155.13
2023-01-15T07:46:05.028Z,99160.22
2023-01-15T07:49:06.660Z,99178.22
2023-01-15T07:51:33.100Z,99173.75
2023-01-15T07:53:59.479Z,99168.75
2023-01-15T07:56:26.077Z,99169.91
2023-01-15T07:58:52.460Z,99171.44
2023-01-15T08:01:19.198Z,99175.78
2023-01-15T08:03:45.655Z,99165.16
2023-01-15T08:06:12.062Z,99162.66
2023-01-15T08:08:38.503Z,99175.94
2023-01-15T08:11:23.577Z,99175.59
2023-01-15T08:14:08.321Z,99175.44
2023-01-15T08:16:37.621Z,99174.44
2023-01-15T08:19:04.253Z,99166.97
2023-01-15T08:21:30.772Z,99178.97
2023-01-15T08:23:57.191Z,99156.34
2023-01-15T08:26:23.627Z,99185.44
2023-01-15T08:28:59.508Z,99174.13
2023-01-15T08:31:26.436Z,99165.69
2023-01-15T08:33:53.102Z,99178.78
2023-01-15T08:36:19.540Z,99166.84
2023-01-15T08:38:49.165Z,99178.63
2023-01-15T08:41:16.073Z,99151.41
2023-01-15T08:43:42.609Z,99173.00
2023-01-15T08:46:09.854Z,99166.84
2023-01-15T08:48:36.288Z,99160.53
2023-01-15T08:51:07.047Z,99161.38
2023-01-15T08:53:34.015Z,99152.41
2023-01-15T08:56:00.604Z,99148.03
2023-01-15T08:58:33.231Z,99137.91
2023-01-15T09:01:08.189Z,99150.53
2023-01-15T09:03:35.522Z,99133.78
2023-01-15T09:06:02.869Z,99137.13
2023-01-15T09:08:30.064Z,99129.16
2023-01-15T09:11:00.900Z,99116.03
2023-01-15T09:13:28.545Z,99131.44
2023-01-15T09:15:58.748Z,99114.69
2023-01-15T09:18:25.075Z,99137.78
2023-01-15T09:20:51.498Z,99127.94
2023-01-15T09:23:17.969Z,99126.13
2023-01-15T09:25:59.873Z,99154.22
2023-01-15T09:28:27.649Z,99144.72
2023-01-15T09:30:54.300Z,99148.06
2023-01-15T09:33:21.090Z,99152.00
2023-01-15T09:35:47.879Z,99139.38
2023-01-15T09:38:19.330Z,99152.63
2023-01-15T09:40:56.601Z,99142.16
2023-01-15T09:43:36.197Z,99145.97
2023-01-15T09:46:13.753Z,99147.78
2023-01-15T09:48:48.372Z,99154.56
2023-01-15T09:51:56.834Z,99166.00
2023-01-15T09:54:44.807Z,99178.19
2023-01-15T09:57:16.478Z,99171.91
2023-01-15T09:59:49.022Z,99162.41
2023-01-15T10:02:21.637Z,99174.56
2023-01-15T10:05:05.249Z,99156.78
2023-01-15T10:08:04.470Z,99149.38
2023-01-15T10:10:40.555Z,99160.84
2023-01-15T10:13:18.833Z,99138.91
2023-01-15T10:15:47.202Z,99157.50
2023-01-15T10:18:20.322Z,99161.53
2023-01-15T10:20:53.101Z,99162.34
2023-01-15T10:23:40.048Z,99162.88
2023-01-15T10:26:38.680Z,99160.38
2023-01-15T10:29:28.411Z,99135.59
2023-01-15T10:32:26.837Z,99154.13
2023-01-15T10:34:59.042Z,99148.22
2023-01-15T10:37:33.266Z,99151.88
2023-01-15T10:40:05.562Z,99168.16
2023-01-15T10:42:45.588Z,99149.22
2023-01-15T10:45:15.146Z,99138.91
2023-01-15T10:47:43.706Z,99135.47
2023-01-15T10:50:18.653Z,99117.28
2023-01-15T10:52:57.450Z,99139.75
2023-01-15T10:55:38.396Z,99131.94
2023-01-15T10:58:16.768Z,99121.59
2023-01-15T11:00:50.673Z,99129.91
2023-01-15T11:03:22.362Z,99133.41
2023-01-15T11:05:49.768Z,99133.75
2023-01-15T11:11:48.300Z,99121.00
2023-01-15T11:14:33.099Z,99116.34
2023-01-15T11:17:08.842Z,99110.22
2023-01-15T11:19:39.666Z,99122.75
2023-01-15T11:22:17.910Z,99116.88
2023-01-15T11:25:01.264Z,99118.19
2023-01-15T11:27:32.854Z,99107.53
2023-01-15T11:30:01.425Z,99096.31
2023-01-15T11:32:35.046Z,99100.81
2023-01-15T11:35:15.252Z,99100.47
2023-01-15T11:37:41.662Z,99111.53
2023-01-15T11:40:19.520Z,99088.97
2023-01-15T11:43:09.077Z,99127.88
2023-01-15T11:46:09.122Z,99113.47
2023-01-15T11:49:03.728Z,99118.75
2023-01-15T11:51:35.535Z,99103.72
2023-01-15T11:54:04.990Z,99129.81
2023-01-15T11:56:35.158Z,99133.50
2023-01-15T11:59:03.615Z,99129.75
2023-01-15T12:01:39.325Z,99123.47
2023-01-15T12:04:22.151Z,99128.66
2023-01-15T12:06:48.968Z,99119.00
2023-01-15T12:09:46.112Z,99122.31
2023-01-15T12:12:24.323Z,99122.50
2023-01-15T12:15:04.033Z,99109.88
2023-01-15T12:17:30.897Z,99095.91
2023-01-15T12:20:24.527Z,99091.09
2023-01-15T12:23:13.094Z,99098.88
2023-01-15T12:26:08.800Z,99099.16
2023-01-15T12:28:40.548Z,99095.63
2023-01-15T12:31:19.570Z,99079.00
2023-01-15T12:33:52.575Z,99081.09
2023-01-15T12:36:23.927Z,99092.00
2023-01-15T12:39:01.041Z,99094.66
2023-01-15T12:41:58.725Z,99070.03
2023-01-15T12:45:03.461Z,99095.91
2023-01-15T12:47:35.873Z,99081.16
2023-01-15T12:50:29.707Z,99077.22
2023-01-15T12:53:20.846Z,99058.69
2023-01-15T12:56:01.782Z,99037.28
2023-01-15T12:59:00.737Z,99069.53
2023-01-15T13:01:45.703Z,99047.56
2023-01-15T13:04:18.428Z,99032.13
2023-01-15T13:06:50.366Z,99051.41
2023-01-15T13:09:44.315Z,99031.84
2023-01-15T13:12:15.155Z,99041.94
2023-01-15T13:14:45.510Z,99038.16
2023-01-15T13:17:36.511Z,99039.28
2023-01-15T13:20:21.332Z,99041.13
2023-01-15T13:23:03.019Z,99037.47
2023-01-15T13:25:37.956Z,99021.00
2023-01-15T13:28:12.755Z,99019.88
2023-01-15T13:31:06.552Z,99029.97
2023-01-15T13:33:51.978Z,98996.72
2023-01-15T13:36:21.330Z,99004.22
2023-01-15T13:38:54.284Z,99007.34
2023-01-15T13:41:43.292Z,99029.44
2023-01-15T13:44:18.814Z,99011.94
2023-01-15T13:46:47.793Z,99019.09
2023-01-15T13:49:19.936Z,98995.31
2023-01-15T13:51:49.262Z,99018.84
2023-01-15T13:54:23.833Z,99004.53
2023-01-15T13:56:50.422Z,99005.97
2023-01-15T13:59:41.579Z,99014.50
2023-01-15T14:02:24.773Z,98990.75
2023-01-15T14:04:51.607Z,99007.97
2023-01-15T14:07:30.954Z,99014.94
2023-01-15T14:10:27.976Z,99023.13
2023-01-15T14:13:44.602Z,99000.19
2023-01-15T14:16:29.132Z,99008.34
2023-01-15T14:19:10.502Z,99015.75
2023-01-15T14:21:40.783Z,98997.50
2023-01-15T14:24:10.244Z,98988.88
2023-01-15T14:27:08.192Z,99002.00
2023-01-15T14:29:53.309Z,98997.56
2023-01-15T14:32:22.836Z,99020.50
2023-01-15T14:34:57.877Z,99011.16
2023-01-15T14:37:24.303Z,98998.06
2023-01-15T14:40:01.755Z,99010.69
2023-01-15T14:42:53.408Z,99007.69
2023-01-15T14:45:25.776Z,99018.81
2023-01-15T14:47:55.199Z,99025.00
2023-01-15T14:50:42.235Z,98987.09
2023-01-15T14:53:11.755Z,99020.97
2023-01-15T14:55:47.204Z,99006.25
2023-01-15T14:58:32.040Z,99022.56
2023-01-15T15:01:04.580Z,99030.00
2023-01-15T15:03:41.416Z,99043.28
2023-01-15T15:06:12.148Z,99069.28
2023-01-15T15:08:42.214Z,99072.75
2023-01-15T15:11:39.192Z,99064.38
2023-01-15T15:14:08.843Z,99086.81
2023-01-15T15:16:42.704Z,99090.69
2023-01-15T15:19:23.103Z,99086.44
2023-01-15T15:21:50.778Z,99106.69
2023-01-15T15:24:26.481Z,99118.50
2023-01-15T15:26:52.957Z,99128.66
2023-01-15T15:29:20.574Z,99137.13
2023-01-15T15:31:56.879Z,99142.59
2023-01-15T15:34:29.122Z,99143.88
2023-01-15T15:37:01.190Z,99156.47
2023-01-15T15:39:39.803Z,99161.06
2023-01-15T15:42:34.111Z,99156.22
2023-01-15T15:45:19.019Z,99156.06
2023-01-15T15:48:04.153Z,99155.50
2023-01-15T15:50:32.890Z,99145.19
2023-01-15T15:53:04.257Z,99166.69
2023-01-15T15:55:43.986Z,99151.69
2023-01-15T15:58:43.557Z,99177.06
2023-01-15T16:01:13.122Z,99186.50
2023-01-15T16:03:47.742Z,99162.25
2023-01-15T16:06:21.162Z,99170.34
2023-01-15T16:09:04.797Z,99183.28
2023-01-15T16:11:33.583Z,99148.75
2023-01-15T16:14:05.709Z,99180.56
2023-01-15T16:16:32.876Z,99180.44
2023-01-15T16:19:01.478Z,99177.88
2023-01-15T16:21:40.231Z,99166.97
2023-01-15T16:24:09.236Z,99179.22
2023-01-15T16:26:37.822Z,99176.41
2023-01-15T16:29:06.581Z,99205.41
2023-01-15T16:31:37.819Z,99221.84
2023-01-15T16:34:05.478Z,99200.91
2023-01-15T16:36:42.102Z,99214.66
2023-01-15T16:39:20.940Z,99216.47
2023-01-15T16:41:48.388Z,99228.94
2023-01-15T16:44:37.827Z,99215.19
2023-01-15T16:47:05.776Z,99223.06
2023-01-15T16:49:33.955Z,99189.78
2023-01-15T16:52:02.321Z,99242.81
2023-01-15T16:54:31.797Z,99245.00
2023-01-15T16:56:59.099Z,99238.72
2023-01-15T16:59:28.509Z,99243.22
2023-01-15T17:02:02.853Z,99270.09
2023-01-15T17:04:31.589Z,99247.38
2023-01-15T17:07:18.724Z,99269.66
2023-01-15T17:09:49.534Z,99267.84
2023-01-15T17:12:35.933Z,99258.38
2023-01-15T17:15:17.742Z,99278.63
2023-01-15T17:17:49.096Z,99278.28
2023-01-15T17:20:16.888Z,99262.88
2023-01-15T17:22:45.873Z,99267.88
2023-01-15T17:25:23.633Z,99273.19
2023-01-15T17:27:54.575Z,99268.38
2023-01-15T17:30:21.302Z,99257.75
2023-01-15T17:32:47.893Z,99268.19
2023-01-15T17:35:23.610Z,99269.25
2023-01-15T17:37:50.342Z,99260.56
2023-01-15T17:40:16.999Z,99272.03
2023-01-15T17:42:43.592Z,99283.31
2023-01-15T17:45:30.394Z,99285.88
2023-01-15T17:47:56.919Z,99291.50
2023-01-15T17:50:23.538Z,99285.38
2023-01-15T17:52:50.745Z,99288.38
2023-01-15T17:55:40.610Z,99297.00
2023-01-15T17:58:29.338Z,99295.19
2023-01-15T18:01:14.711Z,99292.75
2023-01-15T18:04:06.234Z,99287.53
2023-01-15T18:06:33.967Z,99289.13
2023-01-15T18:09:02.908Z,99296.56
2023-01-15T18:11:29.612Z,99294.44
2023-01-15T18:13:57.024Z,99309.41
2023-01-15T18:16:24.105Z,99292.47
2023-01-15T18:18:53.784Z,99298.81
2023-01-15T18:21:20.673Z,99318.25
2023-01-15T18:23:47.313Z,99317.47
2023-01-15T18:26:14.165Z,99301.53
2023-01-15T18:28:40.602Z,99281.72
2023-01-15T18:31:07.348Z,99325.66
2023-01-15T18:33:34.141Z,99318.06
2023-01-15T18:36:04.442Z,99332.00
2023-01-15T18:38:30.749Z,99333.84
2023-01-15T18:40:57.178Z,99339.00
2023-01-15T18:43:41.877Z,99333.22
2023-01-15T18:46:27.259Z,99342.19
2023-01-15T18:48:53.804Z,99312.81
2023-01-15T18:51:21.015Z,99308.81
2023-01-15T18:53:48.605Z,99315.47
2023-01-15T18:56:34.975Z,99338.69
2023-01-15T18:59:01.353Z,99344.00
2023-01-15T19:01:27.824Z,99351.81
2023-01-15T19:03:55.858Z,99345.50
2023-01-15T19:06:22.241Z,99361.13
2023-01-15T19:08:48.846Z,99359.78
2023-01-15T19:11:15.358Z,99360.97
2023-01-15T19:13:41.771Z,99372.09
2023-01-15T19:16:27.419Z,99355.16
2023-01-15T19:18:53.908Z,99368.22
2023-01-15T19:21:21.556Z,99382.63
2023-01-15T19:23:48.050Z,99372.84
2023-01-15T19:26:14.843Z,99382.81
2023-01-15T19:28:41.520Z,99379.47
2023-01-15T19:31:27.945Z,99386.75
2023-01-15T19:34:31.101Z,99364.00
2023-01-15T19:36:45.787Z,99382.22
2023-01-15T19:39:12.302Z,99383.75
2023-01-15T19:41:57.756Z,99400.78
2023-01-15T19:44:42.895Z,99417.38
2023-01-15T19:47:33.478Z,99411.56
2023-01-15T19:50:18.711Z,99390.84
2023-01-15T19:52:49.445Z,99401.44
2023-01-15T19:55:17.668Z,99411.53
2023-01-15T19:57:47.745Z,99417.84
2023-01-15T20:00:17.882Z,99424.75
2023-01-15T20:02:45.786Z,99431.25
2023-01-15T20:05:14.340Z,99427.56
2023-01-15T20:07:41.712Z,99428.06
2023-01-15T20:10:14.518Z,99426.25
2023-01-15T20:13:00.349Z,99422.25
2023-01-15T20:15:27.398Z,99435.19
2023-01-15T20:17:54.255Z,99415.06
2023-01-15T20:20:20.726Z,99431.50
2023-01-15T20:22:47.279Z,99420.91
2023-01-15T20:25:13.965Z,99436.66
2023-01-15T20:27:41.257Z,99429.25
2023-01-15T20:30:11.601Z,99443.41
2023-01-15T20:32:40.287Z,99447.28
2023-01-15T20:35:08.803Z,99443.50
2023-01-15T20:37:35.282Z,99441.28
2023-01-15T20:40:01.754Z,99460.44
2023-01-15T20:42:48.312Z,99448.00
2023-01-15T20:45:15.239Z,99438.69
2023-01-15T20:48:01.823Z,99447.56
2023-01-15T20:50:31.040Z,99451.22
2023-01-15T20:52:58.650Z,99463.22
2023-01-15T20:55:45.657Z,99460.56
2023-01-15T20:58:16.255Z,99455.06
2023-01-15T21:00:42.681Z,99455.09
2023-01-15T21:03:11.302Z,99459.59
2023-01-15T21:05:37.996Z,99459.94
2023-01-15T21:08:04.776Z,99449.63
2023-01-15T21:10:31.181Z,99458.28
2023-01-15T21:12:57.589Z,99466.25
2023-01-15T21:15:23.976Z,99462.53
2023-01-15T21:17:50.425Z,99448.28
2023-01-15T21:20:16.917Z,99460.63
2023-01-15T21:22:44.320Z,99466.59
2023-01-15T21:25:11.211Z,99470.91
2023-01-15T21:27:38.089Z,99465.13
2023-01-15T21:30:05.977Z,99470.97
2023-01-15T21:32:32.634Z,99456.34
2023-01-15T21:34:59.035Z,99460.19
2023-01-15T21:37:25.465Z,99468.50
2023-01-15T21:39:51.843Z,99460.34
2023-01-15T21:42:38.930Z,99466.50
2023-01-15T21:45:06.696Z,99455.81
2023-01-15T21:47:34.057Z,99463.09
2023-01-15T21:50:00.503Z,99456.91
2023-01-15T21:52:29.287Z,99468.81
2023-01-15T21:54:55.779Z,99462.50
2023-01-15T21:57:22.392Z,99469.75
2023-01-15T21:59:49.146Z,99470.53
2023-01-15T22:02:18.999Z,99466.84
2023-01-15T22:04:45.568Z,99464.78
2023-01-15T22:07:12.031Z,99472.28
2023-01-15T22:09:38.751Z,99475.25
2023-01-15T22:12:05.882Z,99438.91
2023-01-15T22:14:33.326Z,99466.56
2023-01-15T22:17:02.420Z,99417.84
2023-01-15T22:19:30.745Z,99463.31
2023-01-15T22:22:00.222Z,99473.28
2023-01-15T22:24:31.421Z,99460.31
2023-01-15T22:26:58.722Z,99466.59
2023-01-15T22:29:28.020Z,99461.63
2023-01-15T22:31:54.775Z,99463.31
2023-01-15T22:34:22.204Z,99460.81
2023-01-15T22:36:49.868Z,99467.53
2023-01-15T22:39:16.337Z,99476.31
2023-01-15T22:42:02.385Z,99452.06
2023-01-15T22:44:28.865Z,99463.75
2023-01-15T22:46:55.545Z,99458.75
2023-01-15T22:49:22.400Z,99474.22
2023-01-15T22:51:49.679Z,99467.25
2023-01-15T22:54:18.671Z,99460.41
2023-01-15T22:56:45.707Z,99459.13
2023-01-15T22:59:13.631Z,99474.56
2023-01-15T23:01:40.733Z,99441.16
2023-01-15T23:04:17.760Z,99477.69
2023-01-15T23:06:44.890Z,99465.09
2023-01-15T23:09:12.421Z,99456.00
2023-01-15T23:11:39.183Z,99431.09
2023-01-15T23:14:07.324Z,99458.41
2023-01-15T23:16:34.474Z,99459.59
2023-01-15T23:19:01.405Z,99461.56
2023-01-15T23:21:28.787Z,99449.25
2023-01-15T23:24:00.310Z,99465.97
2023-01-15T23:26:29.908Z,99462.19
2023-01-15T23:28:56.871Z,99450.50
2023-01-15T23:31:24.306Z,99458.78
2023-01-15T23:33:51.001Z,99463.47
2023-01-15T23:36:17.817Z,99467.50
2023-01-15T23:38:46.598Z,99453.53
2023-01-15T23:41:19.071Z,99422.56
2023-01-15T23:44:04.841Z,99464.66
2023-01-15T23:46:37.434Z,99463.81
2023-01-15T23:49:06.860Z,99466.03
2023-01-15T23:51:34.341Z,99424.91
2023-01-15T23:54:01.663Z,99460.41
2023-01-15T23:56:30.428Z,99456.91
2023-01-15T23:58:57.027Z,99459.25
